createdAt,value
2019-02-27T00:00:15.094Z,1018.75
2019-02-27T00:01:16.927Z,1018.76
2019-02-27T00:02:15.098Z,1018.75
2019-02-27T00:03:15.062Z,1018.73
2019-02-27T00:04:15.050Z,1018.74
2019-02-27T00:05:15.033Z,1018.73
2019-02-27T00:06:15.885Z,1018.73
2019-02-27T00:07:15.030Z,1018.72
2019-02-27T00:08:15.019Z,1018.68
2019-02-27T00:09:14.997Z,1018.67
2019-02-27T00:10:14.981Z,1018.71
2019-02-27T00:11:14.974Z,1018.66
2019-02-27T00:12:16.991Z,1018.68
2019-02-27T00:13:14.966Z,1018.67
2019-02-27T00:14:14.966Z,1018.66
2019-02-27T00:15:14.930Z,1018.65
2019-02-27T00:16:14.914Z,1018.68
2019-02-27T00:17:15.081Z,1018.67
2019-02-27T00:18:14.890Z,1018.63
2019-02-27T00:19:14.909Z,1018.61
2019-02-27T00:20:14.885Z,1018.59
2019-02-27T00:21:14.861Z,1018.60
2019-02-27T00:22:17.411Z,1018.60
2019-02-27T00:23:14.833Z,1018.55
2019-02-27T00:24:14.829Z,1018.58
2019-02-27T00:25:14.870Z,1018.54
2019-02-27T00:26:14.816Z,1018.57
2019-02-27T00:27:15.302Z,1018.51
2019-02-27T00:28:14.781Z,1018.54
2019-02-27T00:29:14.769Z,1018.54
2019-02-27T00:30:14.759Z,1018.53
2019-02-27T00:31:14.774Z,1018.54
2019-02-27T00:32:15.765Z,1018.51
2019-02-27T00:33:14.726Z,1018.56
2019-02-27T00:34:14.713Z,1018.51
2019-02-27T00:35:14.701Z,1018.54
2019-02-27T00:36:14.701Z,1018.48
2019-02-27T00:37:18.791Z,1018.49
2019-02-27T00:38:14.686Z,1018.48
2019-02-27T00:39:14.658Z,1018.45
2019-02-27T00:40:14.645Z,1018.46
2019-02-27T00:41:14.638Z,1018.52
2019-02-27T00:42:19.499Z,1018.45
2019-02-27T00:43:15.637Z,1018.39
2019-02-27T00:44:14.613Z,1018.39
2019-02-27T00:45:14.589Z,1018.39
2019-02-27T00:46:14.581Z,1018.44
2019-02-27T00:47:17.092Z,1018.40
2019-02-27T00:48:15.572Z,1018.40
2019-02-27T00:49:14.574Z,1018.39
2019-02-27T00:50:14.536Z,1018.38
2019-02-27T00:51:14.527Z,1018.38
2019-02-27T00:52:18.037Z,1018.37
2019-02-27T00:53:14.514Z,1018.37
2019-02-27T00:54:14.489Z,1018.36
2019-02-27T00:55:14.500Z,1018.34
2019-02-27T00:56:14.470Z,1018.37
2019-02-27T00:57:15.226Z,1018.36
2019-02-27T00:58:14.463Z,1018.37
2019-02-27T00:59:14.438Z,1018.34
2019-02-27T01:00:14.442Z,1018.33
2019-02-27T01:01:14.431Z,1018.30
2019-02-27T01:02:14.402Z,1018.29
2019-02-27T01:03:14.401Z,1018.32
2019-02-27T01:04:14.380Z,1018.30
2019-02-27T01:05:14.371Z,1018.32
2019-02-27T01:06:15.282Z,1018.32
2019-02-27T01:07:14.359Z,1018.32
2019-02-27T01:08:14.358Z,1018.25
2019-02-27T01:09:14.326Z,1018.26
2019-02-27T01:10:14.313Z,1018.27
2019-02-27T01:11:18.168Z,1018.27
2019-02-27T01:12:14.294Z,1018.31
2019-02-27T01:13:14.293Z,1018.26
2019-02-27T01:14:14.290Z,1018.24
2019-02-27T01:15:14.260Z,1018.24
2019-02-27T01:16:17.024Z,1018.27
2019-02-27T01:17:14.243Z,1018.27
2019-02-27T01:18:14.225Z,1018.29
2019-02-27T01:19:14.226Z,1018.30
2019-02-27T01:20:14.213Z,1018.28
2019-02-27T01:21:14.195Z,1018.27
2019-02-27T01:22:14.182Z,1018.24
2019-02-27T01:23:14.173Z,1018.31
2019-02-27T01:24:14.969Z,1018.28
2019-02-27T01:25:14.185Z,1018.26
2019-02-27T01:26:14.137Z,1018.25
2019-02-27T01:27:14.129Z,1018.28
2019-02-27T01:28:14.113Z,1018.23
2019-02-27T01:29:15.733Z,1018.22
2019-02-27T01:30:14.113Z,1018.18
2019-02-27T01:31:14.117Z,1018.17
2019-02-27T01:32:14.070Z,1018.13
2019-02-27T01:33:14.062Z,1018.11
2019-02-27T01:34:14.050Z,1018.05
2019-02-27T01:35:17.880Z,1018.03
2019-02-27T01:36:14.025Z,1018.00
2019-02-27T01:37:14.051Z,1018.00
2019-02-27T01:38:14.006Z,1018.01
2019-02-27T01:39:14.000Z,1018.01
2019-02-27T01:40:17.209Z,1017.93
2019-02-27T01:41:13.986Z,1017.94
2019-02-27T01:42:13.957Z,1017.91
2019-02-27T01:43:13.962Z,1017.88
2019-02-27T01:44:14.325Z,1017.94
2019-02-27T01:45:13.926Z,1017.90
2019-02-27T01:46:13.919Z,1017.89
2019-02-27T01:47:13.921Z,1017.84
2019-02-27T01:48:13.893Z,1017.88
2019-02-27T01:49:16.264Z,1017.85
2019-02-27T01:50:13.869Z,1017.78
2019-02-27T01:51:13.865Z,1017.78
2019-02-27T01:52:13.850Z,1017.75
2019-02-27T01:53:13.862Z,1017.74
2019-02-27T01:54:15.014Z,1017.74
2019-02-27T01:55:13.841Z,1017.71
2019-02-27T01:56:13.810Z,1017.72
2019-02-27T01:57:13.811Z,1017.70
2019-02-27T01:58:13.840Z,1017.73
2019-02-27T01:59:14.032Z,1017.74
2019-02-27T02:00:13.768Z,1017.69
2019-02-27T02:01:13.777Z,1017.68
2019-02-27T02:02:13.737Z,1017.66
2019-02-27T02:03:14.331Z,1017.66
2019-02-27T02:04:13.713Z,1017.59
2019-02-27T02:05:13.721Z,1017.67
2019-02-27T02:06:13.693Z,1017.59
2019-02-27T02:07:13.693Z,1017.59
2019-02-27T02:08:14.520Z,1017.59
2019-02-27T02:09:13.677Z,1017.54
2019-02-27T02:10:13.653Z,1017.52
2019-02-27T02:11:13.653Z,1017.49
2019-02-27T02:12:13.626Z,1017.45
2019-02-27T02:13:15.197Z,1017.50
2019-02-27T02:14:13.609Z,1017.45
2019-02-27T02:15:13.595Z,1017.42
2019-02-27T02:16:13.581Z,1017.43
2019-02-27T02:17:13.589Z,1017.44
2019-02-27T02:18:13.923Z,1017.39
2019-02-27T02:19:13.558Z,1017.37
2019-02-27T02:20:13.537Z,1017.30
2019-02-27T02:21:13.529Z,1017.32
2019-02-27T02:22:14.218Z,1017.27
2019-02-27T02:23:14.303Z,1017.26
2019-02-27T02:24:13.501Z,1017.28
2019-02-27T02:25:13.501Z,1017.24
2019-02-27T02:26:13.473Z,1017.26
2019-02-27T02:27:13.464Z,1017.21
2019-02-27T02:28:14.771Z,1017.17
2019-02-27T02:29:13.438Z,1017.18
2019-02-27T02:30:13.432Z,1017.16
2019-02-27T02:31:13.434Z,1017.15
2019-02-27T02:32:17.113Z,1017.10
2019-02-27T02:33:13.394Z,1017.17
2019-02-27T02:34:13.401Z,1017.04
2019-02-27T02:35:15.795Z,1017.03
2019-02-27T02:36:13.362Z,1017.04
2019-02-27T02:37:13.372Z,1017.03
2019-02-27T02:38:13.912Z,1017.04
2019-02-27T02:39:17.704Z,1017.00
2019-02-27T02:40:14.338Z,1017.03
2019-02-27T02:41:13.306Z,1017.01
2019-02-27T02:42:13.295Z,1017.01
2019-02-27T02:43:13.306Z,1017.01
2019-02-27T02:44:13.279Z,1016.97
2019-02-27T02:45:13.261Z,1016.99
2019-02-27T02:46:13.267Z,1016.99
2019-02-27T02:47:13.241Z,1017.00
2019-02-27T02:48:13.230Z,1016.90
2019-02-27T02:49:13.230Z,1016.90
2019-02-27T02:50:17.456Z,1016.91
2019-02-27T02:51:14.213Z,1016.89
2019-02-27T02:52:13.191Z,1016.89
2019-02-27T02:53:13.176Z,1016.86
2019-02-27T02:54:13.164Z,1016.88
2019-02-27T02:55:13.545Z,1016.87
2019-02-27T02:56:13.142Z,1016.83
2019-02-27T02:57:13.152Z,1016.79
2019-02-27T02:58:13.122Z,1016.78
2019-02-27T02:59:13.110Z,1016.76
2019-02-27T03:00:13.102Z,1016.75
2019-02-27T03:01:15.146Z,1016.78
2019-02-27T03:02:13.073Z,1016.76
2019-02-27T03:03:13.076Z,1016.76
2019-02-27T03:04:13.648Z,1016.78
2019-02-27T03:05:13.046Z,1016.72
2019-02-27T03:06:13.057Z,1016.69
2019-02-27T03:07:13.051Z,1016.68
2019-02-27T03:08:13.010Z,1016.68
2019-02-27T03:09:12.997Z,1016.67
2019-02-27T03:10:12.987Z,1016.67
2019-02-27T03:11:17.740Z,1016.63
2019-02-27T03:12:13.978Z,1016.66
2019-02-27T03:13:12.982Z,1016.65
2019-02-27T03:14:16.879Z,1016.62
2019-02-27T03:15:12.929Z,1016.60
2019-02-27T03:16:12.922Z,1016.55
2019-02-27T03:17:17.861Z,1016.56
2019-02-27T03:18:13.897Z,1016.54
2019-02-27T03:19:12.910Z,1016.53
2019-02-27T03:20:16.784Z,1016.57
2019-02-27T03:21:12.869Z,1016.58
2019-02-27T03:22:12.853Z,1016.57
2019-02-27T03:23:15.760Z,1016.56
2019-02-27T03:24:12.833Z,1016.58
2019-02-27T03:25:12.849Z,1016.59
2019-02-27T03:26:16.557Z,1016.58
2019-02-27T03:27:12.802Z,1016.53
2019-02-27T03:28:12.793Z,1016.53
2019-02-27T03:29:16.809Z,1016.51
2019-02-27T03:30:12.766Z,1016.51
2019-02-27T03:31:18.023Z,1016.48
2019-02-27T03:32:13.773Z,1016.55
2019-02-27T03:33:23.422Z,1016.54
2019-02-27T03:34:13.725Z,1016.52
2019-02-27T03:35:12.710Z,1016.47
2019-02-27T03:36:12.702Z,1016.48
2019-02-27T03:37:13.434Z,1016.44
2019-02-27T03:38:12.693Z,1016.44
2019-02-27T03:39:12.669Z,1016.44
2019-02-27T03:40:12.656Z,1016.43
2019-02-27T03:41:12.658Z,1016.45
2019-02-27T03:42:12.648Z,1016.44
2019-02-27T03:43:12.636Z,1016.50
2019-02-27T03:44:12.645Z,1016.45
2019-02-27T03:45:12.601Z,1016.45
2019-02-27T03:46:12.590Z,1016.42
2019-02-27T03:47:16.817Z,1016.42
2019-02-27T03:48:12.578Z,1016.39
2019-02-27T03:49:12.558Z,1016.41
2019-02-27T03:50:15.043Z,1016.38
2019-02-27T03:51:12.537Z,1016.44
2019-02-27T03:52:12.529Z,1016.44
2019-02-27T03:53:12.526Z,1016.40
2019-02-27T03:54:12.502Z,1016.40
2019-02-27T03:55:12.489Z,1016.37
2019-02-27T03:56:12.497Z,1016.37
2019-02-27T03:57:18.790Z,1016.40
2019-02-27T03:58:13.478Z,1016.39
2019-02-27T03:59:12.450Z,1016.37
2019-02-27T04:00:18.105Z,1016.37
2019-02-27T04:01:13.421Z,1016.37
2019-02-27T04:02:12.428Z,1016.33
2019-02-27T04:03:17.173Z,1016.36
2019-02-27T04:04:13.402Z,1016.33
2019-02-27T04:05:12.391Z,1016.27
2019-02-27T04:06:12.381Z,1016.31
2019-02-27T04:07:12.357Z,1016.24
2019-02-27T04:08:12.369Z,1016.27
2019-02-27T04:09:18.822Z,1016.24
2019-02-27T04:10:13.344Z,1016.25
2019-02-27T04:11:12.320Z,1016.24
2019-02-27T04:12:16.039Z,1016.26
2019-02-27T04:13:12.289Z,1016.26
2019-02-27T04:14:12.282Z,1016.26
2019-02-27T04:15:17.748Z,1016.21
2019-02-27T04:16:13.266Z,1016.23
2019-02-27T04:17:12.245Z,1016.20
2019-02-27T04:18:12.248Z,1016.19
2019-02-27T04:19:12.229Z,1016.15
2019-02-27T04:20:15.508Z,1016.18
2019-02-27T04:21:12.229Z,1016.14
2019-02-27T04:22:12.197Z,1016.12
2019-02-27T04:23:12.875Z,1016.20
2019-02-27T04:24:12.178Z,1016.16
2019-02-27T04:25:12.158Z,1016.16
2019-02-27T04:26:12.157Z,1016.17
2019-02-27T04:27:12.166Z,1016.15
2019-02-27T04:28:12.126Z,1016.11
2019-02-27T04:29:12.127Z,1016.09
2019-02-27T04:30:14.777Z,1016.06
2019-02-27T04:31:12.095Z,1016.05
2019-02-27T04:32:12.501Z,1015.98
2019-02-27T04:33:12.099Z,1016.01
2019-02-27T04:34:12.070Z,1015.95
2019-02-27T04:35:12.060Z,1015.93
2019-02-27T04:36:12.702Z,1015.92
2019-02-27T04:37:12.027Z,1015.98
2019-02-27T04:38:12.023Z,1015.92
2019-02-27T04:39:12.026Z,1015.90
2019-02-27T04:40:12.005Z,1015.91
2019-02-27T04:41:11.982Z,1015.89
2019-02-27T04:42:11.970Z,1015.89
2019-02-27T04:43:11.966Z,1015.86
2019-02-27T04:44:11.950Z,1015.89
2019-02-27T04:45:12.416Z,1015.82
2019-02-27T04:46:11.932Z,1015.80
2019-02-27T04:47:11.923Z,1015.84
2019-02-27T04:48:11.906Z,1015.81
2019-02-27T04:49:11.898Z,1015.79
2019-02-27T04:50:11.949Z,1015.80
2019-02-27T04:51:11.907Z,1015.83
2019-02-27T04:52:11.863Z,1015.81
2019-02-27T04:53:11.863Z,1015.82
2019-02-27T04:54:11.839Z,1015.84
2019-02-27T04:55:13.084Z,1015.81
2019-02-27T04:56:11.831Z,1015.81
2019-02-27T04:57:11.842Z,1015.79
2019-02-27T04:58:11.802Z,1015.78
2019-02-27T04:59:11.783Z,1015.79
2019-02-27T05:00:11.774Z,1015.78
2019-02-27T05:01:11.762Z,1015.86
2019-02-27T05:02:12.147Z,1015.79
2019-02-27T05:03:11.774Z,1015.88
2019-02-27T05:04:11.731Z,1015.83
2019-02-27T05:05:11.718Z,1015.83
2019-02-27T05:06:11.967Z,1015.84
2019-02-27T05:07:11.698Z,1015.86
2019-02-27T05:08:11.687Z,1015.87
2019-02-27T05:09:12.768Z,1015.81
2019-02-27T05:10:11.663Z,1015.84
2019-02-27T05:11:13.986Z,1015.85
2019-02-27T05:12:11.642Z,1015.79
2019-02-27T05:13:11.628Z,1015.86
2019-02-27T05:14:11.638Z,1015.79
2019-02-27T05:15:11.612Z,1015.80
2019-02-27T05:16:13.929Z,1015.76
2019-02-27T05:17:11.583Z,1015.75
2019-02-27T05:18:11.574Z,1015.77
2019-02-27T05:19:11.562Z,1015.75
2019-02-27T05:20:12.594Z,1015.74
2019-02-27T05:21:11.542Z,1015.78
2019-02-27T05:22:11.570Z,1015.78
2019-02-27T05:23:11.519Z,1015.74
2019-02-27T05:24:11.510Z,1015.70
2019-02-27T05:25:12.109Z,1015.68
2019-02-27T05:26:11.525Z,1015.72
2019-02-27T05:27:11.475Z,1015.75
2019-02-27T05:28:11.468Z,1015.75
2019-02-27T05:29:11.463Z,1015.73
2019-02-27T05:30:12.291Z,1015.71
2019-02-27T05:31:11.430Z,1015.73
2019-02-27T05:32:11.420Z,1015.74
2019-02-27T05:33:11.433Z,1015.71
2019-02-27T05:34:13.510Z,1015.71
2019-02-27T05:35:11.424Z,1015.77
2019-02-27T05:36:11.378Z,1015.73
2019-02-27T05:37:11.367Z,1015.76
2019-02-27T05:38:11.358Z,1015.66
2019-02-27T05:39:11.347Z,1015.68
2019-02-27T05:40:11.350Z,1015.71
2019-02-27T05:41:11.339Z,1015.67
2019-02-27T05:42:13.141Z,1015.72
2019-02-27T05:43:13.876Z,1015.71
2019-02-27T05:44:11.286Z,1015.69
2019-02-27T05:45:11.283Z,1015.71
2019-02-27T05:46:11.272Z,1015.73
2019-02-27T05:47:11.942Z,1015.72
2019-02-27T05:48:11.267Z,1015.71
2019-02-27T05:49:11.235Z,1015.75
2019-02-27T05:50:11.223Z,1015.73
2019-02-27T05:51:11.210Z,1015.69
2019-02-27T05:52:11.824Z,1015.71
2019-02-27T05:53:11.205Z,1015.71
2019-02-27T05:54:11.220Z,1015.67
2019-02-27T05:55:11.167Z,1015.68
2019-02-27T05:56:15.553Z,1015.66
2019-02-27T05:57:12.152Z,1015.66
2019-02-27T05:58:11.140Z,1015.64
2019-02-27T05:59:11.136Z,1015.65
2019-02-27T06:00:11.136Z,1015.65
2019-02-27T06:01:11.107Z,1015.66
2019-02-27T06:02:11.516Z,1015.75
2019-02-27T06:03:11.084Z,1015.70
2019-02-27T06:04:11.084Z,1015.73
2019-02-27T06:05:11.055Z,1015.75
2019-02-27T06:06:11.892Z,1015.77
2019-02-27T06:07:11.060Z,1015.75
2019-02-27T06:08:11.023Z,1015.78
2019-02-27T06:09:11.012Z,1015.86
2019-02-27T06:10:11.100Z,1015.86
2019-02-27T06:11:10.992Z,1015.83
2019-02-27T06:12:10.981Z,1015.91
2019-02-27T06:13:14.010Z,1015.90
2019-02-27T06:14:10.961Z,1015.89
2019-02-27T06:15:10.968Z,1015.85
2019-02-27T06:16:10.940Z,1015.87
2019-02-27T06:17:12.897Z,1015.84
2019-02-27T06:18:10.930Z,1015.77
2019-02-27T06:19:10.924Z,1015.84
2019-02-27T06:20:10.896Z,1015.82
2019-02-27T06:21:13.317Z,1015.80
2019-02-27T06:22:11.872Z,1015.84
2019-02-27T06:23:10.859Z,1015.84
2019-02-27T06:24:12.599Z,1015.84
2019-02-27T06:25:10.868Z,1015.83
2019-02-27T06:26:10.839Z,1015.85
2019-02-27T06:27:10.815Z,1015.85
2019-02-27T06:28:10.808Z,1015.84
2019-02-27T06:29:10.795Z,1015.82
2019-02-27T06:30:10.782Z,1015.83
2019-02-27T06:31:10.783Z,1015.77
2019-02-27T06:32:12.324Z,1015.76
2019-02-27T06:33:11.891Z,1015.76
2019-02-27T06:34:10.738Z,1015.77
2019-02-27T06:35:10.726Z,1015.77
2019-02-27T06:36:10.726Z,1015.71
2019-02-27T06:37:10.711Z,1015.69
2019-02-27T06:38:10.695Z,1015.70
2019-02-27T06:39:10.734Z,1015.72
2019-02-27T06:40:10.674Z,1015.74
2019-02-27T06:41:15.383Z,1015.75
2019-02-27T06:42:11.691Z,1015.72
2019-02-27T06:43:10.656Z,1015.76
2019-02-27T06:44:10.626Z,1015.77
2019-02-27T06:45:12.665Z,1015.83
2019-02-27T06:46:10.610Z,1015.78
2019-02-27T06:47:10.650Z,1015.76
2019-02-27T06:48:10.582Z,1015.76
2019-02-27T06:49:10.574Z,1015.78
2019-02-27T06:50:10.562Z,1015.70
2019-02-27T06:51:10.570Z,1015.67
2019-02-27T06:52:10.542Z,1015.70
2019-02-27T06:53:15.605Z,1015.66
2019-02-27T06:54:11.516Z,1015.63
2019-02-27T06:55:10.509Z,1015.59
2019-02-27T06:56:10.494Z,1015.60
2019-02-27T06:57:10.506Z,1015.60
2019-02-27T06:58:14.317Z,1015.60
2019-02-27T06:59:10.518Z,1015.58
2019-02-27T07:00:10.452Z,1015.60
2019-02-27T07:01:13.126Z,1015.61
2019-02-27T07:02:10.439Z,1015.61
2019-02-27T07:03:10.438Z,1015.63
2019-02-27T07:04:10.409Z,1015.61
2019-02-27T07:05:13.223Z,1015.63
2019-02-27T07:06:10.387Z,1015.64
2019-02-27T07:07:10.374Z,1015.63
2019-02-27T07:08:10.362Z,1015.64
2019-02-27T07:09:11.621Z,1015.59
2019-02-27T07:10:10.342Z,1015.64
2019-02-27T07:11:11.152Z,1015.60
2019-02-27T07:12:10.318Z,1015.62
2019-02-27T07:13:10.306Z,1015.59
2019-02-27T07:14:10.314Z,1015.67
2019-02-27T07:15:12.823Z,1015.61
2019-02-27T07:16:10.274Z,1015.58
2019-02-27T07:17:10.263Z,1015.56
2019-02-27T07:18:11.894Z,1015.59
2019-02-27T07:19:10.263Z,1015.59
2019-02-27T07:20:10.231Z,1015.54
2019-02-27T07:21:10.262Z,1015.54
2019-02-27T07:22:12.545Z,1015.51
2019-02-27T07:23:10.198Z,1015.55
2019-02-27T07:24:10.199Z,1015.51
2019-02-27T07:25:10.179Z,1015.55
2019-02-27T07:26:10.171Z,1015.50
2019-02-27T07:27:10.175Z,1015.48
2019-02-27T07:28:10.143Z,1015.46
2019-02-27T07:29:10.154Z,1015.51
2019-02-27T07:30:10.119Z,1015.52
2019-02-27T07:31:10.125Z,1015.49
2019-02-27T07:32:10.099Z,1015.50
2019-02-27T07:33:10.126Z,1015.49
2019-02-27T07:34:14.255Z,1015.52
2019-02-27T07:35:10.070Z,1015.47
2019-02-27T07:36:10.054Z,1015.48
2019-02-27T07:37:10.443Z,1015.42
2019-02-27T07:38:10.048Z,1015.44
2019-02-27T07:39:10.034Z,1015.42
2019-02-27T07:40:10.015Z,1015.38
2019-02-27T07:41:10.004Z,1015.38
2019-02-27T07:42:09.986Z,1015.37
2019-02-27T07:43:09.982Z,1015.41
2019-02-27T07:44:09.994Z,1015.42
2019-02-27T07:45:10.774Z,1015.39
2019-02-27T07:46:09.946Z,1015.37
2019-02-27T07:47:09.930Z,1015.35
2019-02-27T07:48:09.930Z,1015.34
2019-02-27T07:49:09.919Z,1015.37
2019-02-27T07:50:09.970Z,1015.39
2019-02-27T07:51:09.906Z,1015.38
2019-02-27T07:52:09.878Z,1015.36
2019-02-27T07:53:09.868Z,1015.36
2019-02-27T07:54:09.854Z,1015.37
2019-02-27T07:55:20.817Z,1015.39
2019-02-27T07:56:10.842Z,1015.39
2019-02-27T07:57:09.851Z,1015.43
2019-02-27T07:58:09.811Z,1015.40
2019-02-27T07:59:09.802Z,1015.40
2019-02-27T08:00:09.798Z,1015.40
2019-02-27T08:01:09.778Z,1015.42
2019-02-27T08:02:09.779Z,1015.39
2019-02-27T08:03:12.924Z,1015.46
2019-02-27T08:04:09.754Z,1015.51
2019-02-27T08:05:09.735Z,1015.48
2019-02-27T08:06:09.734Z,1015.49
2019-02-27T08:07:10.008Z,1015.49
2019-02-27T08:08:09.699Z,1015.49
2019-02-27T08:09:09.695Z,1015.50
2019-02-27T08:10:10.631Z,1015.47
2019-02-27T08:11:13.241Z,1015.51
2019-02-27T08:12:09.656Z,1015.45
2019-02-27T08:13:09.642Z,1015.44
2019-02-27T08:14:09.634Z,1015.45
2019-02-27T08:15:09.994Z,1015.42
2019-02-27T08:16:09.650Z,1015.39
2019-02-27T08:17:17.202Z,1015.43
2019-02-27T08:18:10.641Z,1015.35
2019-02-27T08:19:11.570Z,1015.37
2019-02-27T08:20:09.566Z,1015.39
2019-02-27T08:21:09.554Z,1015.36
2019-02-27T08:22:09.590Z,1015.40
2019-02-27T08:23:09.538Z,1015.41
2019-02-27T08:24:09.522Z,1015.43
2019-02-27T08:25:09.510Z,1015.49
2019-02-27T08:26:09.502Z,1015.48
2019-02-27T08:27:09.749Z,1015.48
2019-02-27T08:28:09.516Z,1015.47
2019-02-27T08:29:09.480Z,1015.49
2019-02-27T08:30:09.455Z,1015.42
2019-02-27T08:31:09.442Z,1015.47
2019-02-27T08:32:09.435Z,1015.39
2019-02-27T08:33:09.426Z,1015.43
2019-02-27T08:34:09.458Z,1015.44
2019-02-27T08:35:09.398Z,1015.39
2019-02-27T08:36:09.390Z,1015.44
2019-02-27T08:37:09.379Z,1015.37
2019-02-27T08:38:09.366Z,1015.38
2019-02-27T08:39:09.354Z,1015.31
2019-02-27T08:40:09.379Z,1015.33
2019-02-27T08:41:09.334Z,1015.31
2019-02-27T08:42:09.322Z,1015.28
2019-02-27T08:43:10.333Z,1015.30
2019-02-27T08:44:12.271Z,1015.30
2019-02-27T08:45:18.922Z,1015.30
2019-02-27T08:46:10.295Z,1015.32
2019-02-27T08:47:10.325Z,1015.28
2019-02-27T08:48:09.255Z,1015.29
2019-02-27T08:49:09.247Z,1015.25
2019-02-27T08:50:09.242Z,1015.23
2019-02-27T08:51:09.255Z,1015.15
2019-02-27T08:52:09.234Z,1015.18
2019-02-27T08:53:09.210Z,1015.16
2019-02-27T08:54:09.269Z,1015.19
2019-02-27T08:55:18.382Z,1015.15
2019-02-27T08:56:12.444Z,1015.13
2019-02-27T08:57:09.178Z,1015.09
2019-02-27T08:58:09.166Z,1015.05
2019-02-27T08:59:09.134Z,1014.99
2019-02-27T09:00:09.123Z,1015.04
2019-02-27T09:01:09.110Z,1014.94
2019-02-27T09:02:09.098Z,1014.95
2019-02-27T09:03:09.098Z,1015.01
2019-02-27T09:04:11.629Z,1014.95
2019-02-27T09:05:09.067Z,1014.96
2019-02-27T09:06:09.071Z,1014.96
2019-02-27T09:07:09.050Z,1014.92
2019-02-27T09:08:10.127Z,1014.91
2019-02-27T09:09:09.031Z,1014.84
2019-02-27T09:10:09.022Z,1014.86
2019-02-27T09:11:08.998Z,1014.84
2019-02-27T09:12:13.124Z,1014.86
2019-02-27T09:13:08.975Z,1014.83
2019-02-27T09:14:08.966Z,1014.85
2019-02-27T09:15:08.955Z,1014.84
2019-02-27T09:16:08.967Z,1014.80
2019-02-27T09:17:08.952Z,1014.77
2019-02-27T09:18:08.925Z,1014.77
2019-02-27T09:19:09.442Z,1014.71
2019-02-27T09:20:08.898Z,1014.75
2019-02-27T09:21:08.888Z,1014.74
2019-02-27T09:22:08.925Z,1014.76
2019-02-27T09:23:08.890Z,1014.74
2019-02-27T09:24:08.855Z,1014.73
2019-02-27T09:25:08.846Z,1014.72
2019-02-27T09:26:08.834Z,1014.72
2019-02-27T09:27:08.849Z,1014.68
2019-02-27T09:28:09.891Z,1014.67
2019-02-27T09:29:08.810Z,1014.65
2019-02-27T09:30:08.790Z,1014.68
2019-02-27T09:31:08.817Z,1014.69
2019-02-27T09:32:09.278Z,1014.63
2019-02-27T09:33:08.754Z,1014.68
2019-02-27T09:34:08.838Z,1014.60
2019-02-27T09:35:08.731Z,1014.63
2019-02-27T09:36:10.333Z,1014.60
2019-02-27T09:37:08.710Z,1014.54
2019-02-27T09:38:08.796Z,1014.57
2019-02-27T09:39:08.722Z,1014.58
2019-02-27T09:40:08.686Z,1014.57
2019-02-27T09:41:12.143Z,1014.52
2019-02-27T09:42:08.655Z,1014.57
2019-02-27T09:43:08.646Z,1014.49
2019-02-27T09:44:08.633Z,1014.56
2019-02-27T09:45:11.126Z,1014.53
2019-02-27T09:46:08.607Z,1014.50
2019-02-27T09:47:08.598Z,1014.54
2019-02-27T09:48:08.587Z,1014.54
2019-02-27T09:49:08.574Z,1014.56
2019-02-27T09:50:08.562Z,1014.59
2019-02-27T09:51:08.634Z,1014.58
2019-02-27T09:52:08.539Z,1014.58
2019-02-27T09:53:08.530Z,1014.59
2019-02-27T09:54:11.035Z,1014.56
2019-02-27T09:55:08.518Z,1014.59
2019-02-27T09:56:08.501Z,1014.58
2019-02-27T09:57:08.502Z,1014.59
2019-02-27T09:58:11.130Z,1014.57
2019-02-27T09:59:08.462Z,1014.53
2019-02-27T10:00:08.462Z,1014.54
2019-02-27T10:01:08.449Z,1014.49
2019-02-27T10:02:09.001Z,1014.50
2019-02-27T10:03:08.442Z,1014.49
2019-02-27T10:04:09.676Z,1014.48
2019-02-27T10:05:08.394Z,1014.46
2019-02-27T10:06:08.966Z,1014.45
2019-02-27T10:07:08.378Z,1014.42
2019-02-27T10:08:08.374Z,1014.44
2019-02-27T10:09:08.374Z,1014.44
2019-02-27T10:10:10.513Z,1014.46
2019-02-27T10:11:08.326Z,1014.49
2019-02-27T10:12:08.330Z,1014.40
2019-02-27T10:13:08.305Z,1014.41
2019-02-27T10:14:08.298Z,1014.42
2019-02-27T10:15:08.326Z,1014.44
2019-02-27T10:16:08.271Z,1014.46
2019-02-27T10:17:09.156Z,1014.45
2019-02-27T10:18:08.266Z,1014.51
2019-02-27T10:19:08.238Z,1014.53
2019-02-27T10:20:08.226Z,1014.53
2019-02-27T10:21:15.272Z,1014.52
2019-02-27T10:22:08.212Z,1014.50
2019-02-27T10:23:08.214Z,1014.49
2019-02-27T10:24:08.185Z,1014.53
2019-02-27T10:25:08.824Z,1014.47
2019-02-27T10:26:08.194Z,1014.43
2019-02-27T10:27:08.158Z,1014.41
2019-02-27T10:28:08.143Z,1014.38
2019-02-27T10:29:08.150Z,1014.37
2019-02-27T10:30:11.526Z,1014.37
2019-02-27T10:31:08.114Z,1014.40
2019-02-27T10:32:08.131Z,1014.39
2019-02-27T10:33:11.001Z,1014.40
2019-02-27T10:34:08.074Z,1014.41
2019-02-27T10:35:08.097Z,1014.33
2019-02-27T10:36:08.055Z,1014.35
2019-02-27T10:37:12.859Z,1014.40
2019-02-27T10:38:09.035Z,1014.36
2019-02-27T10:39:08.022Z,1014.38
2019-02-27T10:40:08.761Z,1014.37
2019-02-27T10:41:08.018Z,1014.33
2019-02-27T10:42:07.990Z,1014.32
2019-02-27T10:43:07.973Z,1014.31
2019-02-27T10:44:07.974Z,1014.28
2019-02-27T10:45:10.122Z,1014.28
2019-02-27T10:46:07.942Z,1014.27
2019-02-27T10:47:07.982Z,1014.29
2019-02-27T10:48:07.921Z,1014.27
2019-02-27T10:49:07.905Z,1014.24
2019-02-27T10:50:07.898Z,1014.26
2019-02-27T10:51:09.570Z,1014.29
2019-02-27T10:52:07.885Z,1014.31
2019-02-27T10:53:07.897Z,1014.34
2019-02-27T10:54:07.850Z,1014.30
2019-02-27T10:55:08.245Z,1014.22
2019-02-27T10:56:07.834Z,1014.26
2019-02-27T10:57:07.836Z,1014.22
2019-02-27T10:58:07.853Z,1014.14
2019-02-27T10:59:07.793Z,1014.16
2019-02-27T11:00:07.786Z,1014.22
2019-02-27T11:01:07.794Z,1014.19
2019-02-27T11:02:09.740Z,1014.18
2019-02-27T11:03:07.766Z,1014.15
2019-02-27T11:04:07.745Z,1014.10
2019-02-27T11:05:07.734Z,1014.09
2019-02-27T11:06:07.722Z,1014.09
2019-02-27T11:07:07.710Z,1014.10
2019-02-27T11:08:07.727Z,1014.01
2019-02-27T11:09:07.689Z,1013.99
2019-02-27T11:10:07.678Z,1014.00
2019-02-27T11:11:08.726Z,1013.96
2019-02-27T11:12:07.650Z,1013.97
2019-02-27T11:13:07.646Z,1013.94
2019-02-27T11:14:07.634Z,1013.92
2019-02-27T11:15:08.240Z,1013.94
2019-02-27T11:16:07.625Z,1013.91
2019-02-27T11:17:07.595Z,1013.87
2019-02-27T11:18:07.585Z,1013.89
2019-02-27T11:19:07.582Z,1013.82
2019-02-27T11:20:07.564Z,1013.80
2019-02-27T11:21:07.565Z,1013.80
2019-02-27T11:22:07.542Z,1013.74
2019-02-27T11:23:07.777Z,1013.74
2019-02-27T11:24:07.524Z,1013.79
2019-02-27T11:25:07.507Z,1013.67
2019-02-27T11:26:07.494Z,1013.65
2019-02-27T11:27:07.498Z,1013.67
2019-02-27T11:28:07.474Z,1013.66
2019-02-27T11:29:07.461Z,1013.64
2019-02-27T11:30:07.454Z,1013.59
2019-02-27T11:31:08.482Z,1013.57
2019-02-27T11:32:07.445Z,1013.50
2019-02-27T11:33:07.417Z,1013.52
2019-02-27T11:34:07.810Z,1013.50
2019-02-27T11:35:07.394Z,1013.53
2019-02-27T11:36:07.387Z,1013.43
2019-02-27T11:37:10.004Z,1013.45
2019-02-27T11:38:08.381Z,1013.41
2019-02-27T11:39:07.354Z,1013.41
2019-02-27T11:40:07.866Z,1013.38
2019-02-27T11:41:07.326Z,1013.36
2019-02-27T11:42:07.317Z,1013.43
2019-02-27T11:43:07.668Z,1013.41
2019-02-27T11:44:07.302Z,1013.36
2019-02-27T11:45:07.285Z,1013.34
2019-02-27T11:46:07.276Z,1013.27
2019-02-27T11:47:10.901Z,1013.31
2019-02-27T11:48:07.250Z,1013.31
2019-02-27T11:49:07.263Z,1013.24
2019-02-27T11:50:07.224Z,1013.21
2019-02-27T11:51:07.215Z,1013.13
2019-02-27T11:52:07.202Z,1013.16
2019-02-27T11:53:07.189Z,1013.07
2019-02-27T11:54:08.290Z,1013.12
2019-02-27T11:55:07.194Z,1013.13
2019-02-27T11:56:07.157Z,1013.09
2019-02-27T11:57:07.146Z,1013.08
2019-02-27T11:58:07.133Z,1013.07
2019-02-27T11:59:07.126Z,1013.03
2019-02-27T12:00:07.117Z,1013.03
2019-02-27T12:01:07.141Z,1012.98
2019-02-27T12:02:07.094Z,1012.92
2019-02-27T12:03:08.644Z,1012.94
2019-02-27T12:04:07.069Z,1012.91
2019-02-27T12:05:07.061Z,1012.93